createdAt,value
2022-10-01T00:02:09.696Z,5.30
2022-10-01T00:04:38.037Z,5.30
2022-10-01T00:07:10.262Z,5.30
2022-10-01T00:09:39.560Z,5.30
2022-10-01T00:12:09.157Z,5.20
2022-10-01T00:14:39.388Z,5.20
2022-10-01T00:17:07.229Z,5.10
2022-10-01T00:19:35.121Z,5.10
2022-10-01T00:22:03.077Z,5.20
2022-10-01T00:24:30.909Z,5.20
2022-10-01T00:27:00.427Z,5.20
2022-10-01T00:29:28.334Z,5.20
2022-10-01T00:31:57.124Z,5.20
2022-10-01T00:34:25.429Z,5.30
2022-10-01T00:36:53.291Z,5.30
2022-10-01T00:39:21.292Z,5.20
2022-10-01T00:41:49.862Z,5.30
2022-10-01T00:44:33.300Z,5.20
2022-10-01T00:47:07.193Z,5.20
2022-10-01T00:49:38.878Z,5.20
2022-10-01T00:52:11.060Z,5.10
2022-10-01T00:54:44.205Z,5.00
2022-10-01T00:57:15.218Z,4.90
2022-10-01T00:59:45.654Z,4.90
2022-10-01T01:02:14.042Z,4.90
2022-10-01T01:04:43.117Z,5.00
2022-10-01T01:07:11.487Z,5.10
2022-10-01T01:09:43.863Z,5.00
2022-10-01T01:12:24.604Z,5.10
2022-10-01T01:15:04.676Z,5.00
2022-10-01T01:17:38.619Z,5.10
2022-10-01T01:20:31.765Z,5.10
2022-10-01T01:23:12.293Z,5.10
2022-10-01T01:25:47.239Z,5.10
2022-10-01T01:28:24.341Z,5.10
2022-10-01T06:15:06.524Z,7.80
2022-10-01T06:17:34.247Z,8.10
2022-10-01T06:20:02.704Z,8.30
2022-10-01T06:22:30.539Z,8.50
2022-10-01T06:24:58.759Z,8.70
2022-10-01T06:27:26.636Z,8.90
2022-10-01T06:29:54.682Z,9.10
2022-10-01T06:32:23.899Z,9.30
2022-10-01T06:34:52.317Z,9.50
2022-10-01T06:37:20.259Z,9.80
2022-10-01T06:39:48.156Z,9.90
2022-10-01T06:42:16.040Z,10.10
2022-10-01T06:44:43.879Z,10.20
2022-10-01T06:47:11.736Z,10.30
2022-10-01T06:49:45.573Z,10.40
2022-10-01T06:52:33.272Z,10.50
2022-10-01T06:55:01.615Z,10.70
2022-10-01T06:57:30.206Z,10.70
2022-10-01T06:59:58.433Z,10.70
2022-10-01T07:02:30.060Z,10.80
2022-10-01T07:05:00.004Z,10.80
2022-10-01T07:07:30.184Z,10.90
2022-10-01T07:09:58.290Z,10.90
2022-10-01T07:12:26.497Z,11.00
2022-10-01T07:14:54.567Z,11.10
2022-10-01T07:17:22.711Z,11.10
2022-10-01T07:19:50.582Z,11.30
2022-10-01T07:22:20.294Z,11.50
2022-10-01T07:24:48.198Z,11.80
2022-10-01T07:27:16.112Z,12.10
2022-10-01T07:29:43.968Z,12.50
2022-10-01T07:32:12.037Z,12.70
2022-10-01T07:34:41.031Z,12.90
2022-10-01T07:37:09.421Z,13.00
2022-10-01T07:39:38.824Z,12.90
2022-10-01T07:42:06.905Z,12.80
2022-10-01T07:44:34.749Z,12.80
2022-10-01T07:47:02.594Z,12.60
2022-10-01T07:49:30.485Z,12.50
2022-10-01T07:51:59.001Z,12.50
2022-10-01T07:54:27.132Z,12.50
2022-10-01T07:56:56.712Z,12.60
2022-10-01T07:59:25.038Z,12.80
2022-10-01T08:01:53.767Z,12.60
2022-10-01T08:04:48.467Z,12.60
2022-10-01T08:07:16.395Z,12.40
2022-10-01T08:09:44.232Z,12.40
2022-10-01T08:12:13.478Z,12.40
2022-10-01T08:14:41.318Z,12.40
2022-10-01T08:17:09.173Z,12.40
2022-10-01T08:19:37.313Z,12.40
2022-10-01T08:22:05.253Z,12.40
2022-10-01T08:24:34.714Z,12.50
2022-10-01T08:27:02.637Z,12.40
2022-10-01T08:29:34.260Z,12.30
2022-10-01T08:32:02.459Z,12.30
2022-10-01T08:34:31.195Z,12.20
2022-10-01T08:36:59.075Z,12.20
2022-10-01T08:39:27.057Z,12.10
2022-10-01T08:42:02.984Z,12.10
2022-10-01T08:44:37.416Z,12.00
2022-10-01T08:47:12.770Z,12.10
2022-10-01T08:49:45.831Z,12.20
2022-10-01T08:52:21.204Z,12.10
2022-10-01T08:54:53.616Z,12.10
2022-10-01T08:57:25.528Z,12.10
2022-10-01T08:59:59.978Z,12.20
2022-10-01T09:02:30.054Z,12.20
2022-10-01T09:05:01.800Z,12.20
2022-10-01T09:07:50.574Z,12.20
2022-10-01T09:10:28.780Z,12.20
2022-10-01T09:13:19.026Z,12.20
2022-10-01T09:15:58.517Z,12.30
2022-10-01T09:18:38.453Z,12.20
2022-10-01T09:21:08.237Z,12.30
2022-10-01T09:23:47.268Z,12.30
2022-10-01T09:26:15.272Z,12.30
2022-10-01T09:28:44.695Z,12.40
2022-10-01T09:31:19.688Z,12.50
2022-10-01T09:33:56.205Z,12.50
2022-10-01T09:36:33.352Z,12.60
2022-10-01T09:39:13.107Z,12.60
2022-10-01T09:41:41.105Z,12.70
2022-10-01T09:44:18.813Z,12.90
2022-10-01T09:46:48.606Z,13.10
2022-10-01T09:49:27.371Z,13.10
2022-10-01T09:52:02.641Z,13.10
2022-10-01T09:54:35.333Z,13.00
2022-10-01T09:57:09.306Z,12.90
2022-10-01T09:59:42.845Z,13.20
2022-10-01T10:02:18.680Z,13.70
2022-10-01T10:04:46.679Z,13.80
2022-10-01T10:07:19.879Z,13.90
2022-10-01T10:09:47.771Z,13.70
2022-10-01T10:12:30.436Z,13.70
2022-10-01T10:15:07.149Z,13.60
2022-10-01T10:17:37.885Z,13.80
2022-10-01T10:20:17.258Z,14.20
2022-10-01T10:22:44.988Z,14.70
2022-10-01T10:25:17.417Z,15.10
2022-10-01T10:27:54.137Z,14.80
2022-10-01T10:30:24.183Z,14.40
2022-10-01T10:32:53.551Z,14.60
2022-10-01T10:35:24.943Z,14.70
2022-10-01T10:37:53.691Z,14.30
2022-10-01T10:40:26.996Z,14.20
2022-10-01T10:42:58.432Z,14.30
2022-10-01T10:45:30.723Z,14.10
2022-10-01T10:48:01.912Z,13.90
2022-10-01T10:50:31.611Z,14.10
2022-10-01T10:52:59.581Z,14.10
2022-10-01T10:55:30.180Z,14.20
2022-10-01T10:58:10.154Z,14.20
2022-10-01T11:00:44.564Z,14.00
2022-10-01T11:03:15.444Z,13.90
2022-10-01T11:05:43.872Z,13.80
2022-10-01T11:08:17.769Z,13.70
2022-10-01T11:10:49.507Z,13.60
2022-10-01T11:13:29.238Z,13.50
2022-10-01T11:16:09.114Z,13.40
2022-10-01T11:18:44.035Z,13.20
2022-10-01T11:21:18.883Z,13.00
2022-10-01T11:24:04.885Z,12.90
2022-10-01T11:26:38.189Z,13.00
2022-10-01T11:29:13.324Z,12.90
2022-10-01T11:31:47.054Z,12.90
2022-10-01T11:34:39.389Z,12.80
2022-10-01T11:37:16.358Z,12.60
2022-10-01T11:39:45.791Z,12.80
2022-10-01T11:42:15.137Z,12.70
2022-10-01T11:44:45.238Z,12.60
2022-10-01T11:47:16.493Z,12.50
2022-10-01T11:49:55.102Z,12.30
2022-10-01T11:52:29.864Z,12.20
2022-10-01T11:55:23.660Z,12.10
2022-10-01T11:58:10.398Z,12.10
2022-10-01T12:00:39.130Z,11.80
2022-10-01T12:03:11.754Z,11.90
2022-10-01T12:05:39.867Z,11.80
2022-10-01T12:08:12.728Z,11.80
2022-10-01T12:10:41.891Z,11.70
2022-10-01T12:13:15.874Z,11.50
2022-10-01T12:15:46.086Z,11.40
2022-10-01T12:18:17.099Z,11.30
2022-10-01T12:20:47.254Z,11.40
2022-10-01T12:23:19.533Z,11.20
2022-10-01T12:25:51.543Z,11.30
2022-10-01T12:28:21.129Z,11.30
2022-10-01T12:30:53.843Z,11.20
2022-10-01T12:33:33.328Z,11.10
2022-10-01T12:36:04.735Z,11.20
2022-10-01T12:38:44.484Z,11.10
2022-10-01T12:41:18.519Z,11.00
2022-10-01T12:43:58.386Z,11.00
2022-10-01T12:46:33.807Z,11.00
2022-10-01T12:49:07.932Z,11.00
2022-10-01T12:51:38.667Z,10.90
2022-10-01T12:54:14.080Z,10.90
2022-10-01T12:56:46.237Z,10.80
2022-10-01T12:59:21.050Z,10.90
2022-10-01T13:01:56.138Z,10.80
2022-10-01T13:04:34.816Z,10.80
2022-10-01T13:07:13.101Z,10.90
2022-10-01T13:09:48.926Z,10.90
2022-10-01T13:12:22.555Z,10.90
2022-10-01T13:14:52.757Z,10.80
2022-10-01T13:17:24.462Z,10.80
2022-10-01T13:19:56.339Z,10.80
2022-10-01T13:22:28.498Z,10.80
2022-10-01T13:25:01.652Z,10.80
2022-10-01T13:27:36.043Z,10.70
2022-10-01T13:30:07.710Z,10.80
2022-10-01T13:32:37.900Z,10.90
2022-10-01T13:35:20.489Z,10.90
2022-10-01T13:37:48.239Z,10.90
2022-10-01T13:40:24.489Z,10.80
2022-10-01T13:42:53.248Z,10.80
2022-10-01T13:45:27.223Z,10.80
2022-10-01T13:48:05.385Z,10.80
2022-10-01T13:50:33.235Z,10.70
2022-10-01T13:53:15.376Z,10.70
2022-10-01T13:55:45.436Z,10.70
2022-10-01T13:58:22.464Z,10.70
2022-10-01T14:00:50.704Z,10.80
2022-10-01T14:03:33.558Z,10.80
2022-10-01T14:06:02.602Z,10.80
2022-10-01T14:08:32.061Z,10.80
2022-10-01T14:11:23.908Z,10.90
2022-10-01T14:14:09.882Z,10.90
2022-10-01T14:16:38.480Z,10.90
2022-10-01T14:19:06.233Z,10.90
2022-10-01T14:21:38.044Z,10.90
2022-10-01T14:24:12.458Z,10.90
2022-10-01T14:26:45.018Z,10.90
2022-10-01T14:29:17.140Z,10.90
2022-10-01T14:31:54.182Z,10.80
2022-10-01T14:34:28.346Z,10.80
2022-10-01T14:36:56.731Z,10.80
2022-10-01T14:39:25.239Z,10.90
2022-10-01T14:41:55.332Z,11.00
2022-10-01T14:44:24.630Z,10.90
2022-10-01T14:46:53.026Z,10.90
2022-10-01T14:49:21.716Z,10.80
2022-10-01T14:51:50.924Z,10.80
2022-10-01T14:54:18.634Z,10.80
2022-10-01T14:56:46.465Z,10.80
2022-10-01T14:59:21.122Z,10.80
2022-10-01T15:01:56.458Z,10.80
2022-10-01T15:04:24.467Z,10.80
2022-10-01T15:06:52.574Z,10.80
2022-10-01T15:09:20.725Z,10.70
2022-10-01T15:11:50.472Z,10.70
2022-10-01T15:14:22.526Z,10.70
2022-10-01T15:16:50.990Z,10.70
2022-10-01T15:19:22.909Z,10.70
2022-10-01T15:21:54.704Z,10.70
2022-10-01T15:24:27.098Z,10.70
2022-10-01T15:26:57.710Z,10.70
2022-10-01T15:29:26.979Z,10.70
2022-10-01T15:31:58.068Z,10.70
2022-10-01T15:34:27.625Z,10.70
2022-10-01T15:36:56.377Z,10.70
2022-10-01T15:39:29.903Z,10.70
2022-10-01T15:41:59.180Z,10.70
2022-10-01T15:44:50.269Z,10.70
2022-10-01T15:47:32.884Z,10.70
2022-10-01T15:50:17.076Z,10.70
2022-10-01T15:52:52.943Z,10.70
2022-10-01T15:55:24.513Z,10.70
2022-10-01T15:57:56.670Z,10.70
2022-10-01T16:00:28.231Z,10.70
2022-10-01T16:02:58.314Z,10.70
2022-10-01T16:05:30.366Z,10.70
2022-10-01T16:07:59.595Z,10.70
2022-10-01T16:10:36.617Z,10.70
2022-10-01T16:13:35.651Z,10.70
2022-10-01T16:16:18.824Z,10.70
2022-10-01T16:18:52.422Z,10.70
2022-10-01T16:21:21.187Z,10.70
2022-10-01T16:23:50.424Z,10.70
2022-10-01T16:26:36.019Z,10.70
2022-10-01T16:29:07.839Z,10.70
2022-10-01T16:31:40.152Z,10.70
2022-10-01T16:34:12.845Z,10.70
2022-10-01T16:36:41.150Z,10.80
2022-10-01T16:39:08.971Z,10.70
2022-10-01T16:41:37.233Z,10.80
2022-10-01T16:44:06.149Z,10.80
2022-10-01T16:46:34.392Z,10.80
2022-10-01T16:49:09.955Z,10.80
2022-10-01T16:51:37.865Z,10.80
2022-10-01T16:54:07.676Z,10.80
2022-10-01T16:56:35.899Z,10.80
2022-10-01T16:59:04.030Z,10.70
2022-10-01T17:01:32.146Z,10.70
2022-10-01T17:04:00.016Z,10.80
2022-10-01T17:06:29.222Z,10.80
2022-10-01T17:08:57.090Z,10.80
2022-10-01T17:11:26.970Z,10.70
2022-10-01T17:13:54.697Z,10.70
2022-10-01T17:16:24.748Z,10.70
2022-10-01T17:18:52.761Z,10.70
2022-10-01T17:21:20.602Z,10.80
2022-10-01T17:23:53.314Z,10.80
2022-10-01T17:26:21.844Z,10.70
2022-10-01T17:28:49.795Z,10.70
2022-10-01T17:31:18.273Z,10.70
2022-10-01T17:33:46.271Z,10.60
2022-10-01T17:36:14.127Z,10.50
2022-10-01T17:38:42.287Z,10.50
2022-10-01T17:41:11.689Z,10.50
2022-10-01T17:43:41.306Z,10.40
2022-10-01T17:46:09.257Z,10.50
2022-10-01T17:48:37.240Z,10.50
2022-10-01T17:51:07.603Z,10.40
2022-10-01T17:53:42.329Z,10.40
2022-10-01T17:56:14.767Z,10.50
2022-10-01T17:58:45.519Z,10.50
2022-10-01T18:01:16.554Z,10.50
2022-10-01T18:03:44.594Z,10.50
2022-10-01T18:06:15.253Z,10.60
2022-10-01T18:08:58.745Z,10.60
2022-10-01T18:11:29.297Z,10.80
2022-10-01T18:13:57.716Z,10.90
2022-10-01T18:16:26.418Z,10.90
2022-10-01T18:22:13.967Z,11.10
2022-10-01T18:24:42.202Z,11.10
2022-10-01T18:27:11.379Z,11.20
2022-10-01T18:29:39.776Z,11.20
2022-10-01T18:32:16.869Z,11.30
2022-10-01T18:34:50.852Z,11.30
2022-10-01T18:37:29.746Z,11.30
2022-10-01T18:40:00.740Z,11.20
2022-10-01T18:42:35.713Z,11.20
2022-10-01T18:45:08.091Z,11.20
2022-10-01T18:47:46.592Z,11.20
2022-10-01T18:50:25.345Z,11.20
2022-10-01T18:53:11.843Z,11.20
2022-10-01T18:56:09.852Z,11.10
2022-10-01T18:59:01.555Z,11.30
2022-10-01T19:01:39.487Z,11.30
2022-10-01T19:04:28.824Z,11.30
2022-10-01T19:07:09.483Z,11.30
2022-10-01T19:09:51.909Z,11.30
2022-10-01T19:12:36.607Z,11.30
2022-10-01T19:15:26.501Z,11.40
2022-10-01T19:18:06.573Z,11.40
2022-10-01T19:20:45.846Z,11.40
2022-10-01T19:23:35.050Z,11.40
2022-10-01T19:26:10.847Z,11.30
2022-10-01T19:28:56.001Z,11.30
2022-10-01T19:31:32.540Z,11.30
2022-10-01T19:34:06.137Z,11.30
2022-10-01T19:36:38.316Z,11.20
2022-10-01T19:39:12.090Z,11.20
2022-10-01T19:41:44.396Z,11.30
2022-10-01T19:44:16.301Z,11.20
2022-10-01T19:46:48.283Z,11.20
2022-10-01T19:49:21.430Z,11.20
2022-10-01T19:51:56.309Z,11.00
2022-10-01T19:54:29.027Z,11.00
2022-10-01T19:57:00.929Z,11.00
2022-10-01T19:59:30.867Z,11.00
2022-10-01T20:02:04.529Z,11.00
2022-10-01T20:04:38.078Z,11.00
2022-10-01T20:07:11.503Z,11.10
2022-10-01T20:09:45.288Z,11.00
2022-10-01T20:12:25.536Z,11.00
2022-10-01T20:15:09.801Z,11.00
2022-10-01T20:17:49.123Z,11.00
2022-10-01T20:20:23.433Z,11.00
2022-10-01T20:23:04.567Z,10.90
2022-10-01T20:25:39.318Z,11.00
2022-10-01T20:28:14.397Z,11.00
2022-10-01T20:30:50.788Z,11.00
2022-10-01T20:33:30.029Z,10.90
2022-10-01T20:36:03.520Z,11.00
2022-10-01T20:38:36.237Z,10.90
2022-10-01T20:41:10.897Z,10.90
2022-10-01T20:43:44.414Z,10.90
2022-10-01T20:46:16.009Z,11.00
2022-10-01T20:48:50.573Z,11.10
2022-10-01T20:51:24.912Z,11.00
2022-10-01T20:53:56.985Z,11.00
2022-10-01T20:56:31.502Z,10.90
2022-10-01T20:59:04.546Z,11.00
2022-10-01T21:01:37.308Z,10.90
2022-10-01T21:04:12.129Z,10.90
2022-10-01T21:06:44.486Z,11.00
2022-10-01T21:09:18.955Z,10.90
2022-10-01T21:11:50.908Z,11.00
2022-10-01T21:14:26.135Z,10.90
2022-10-01T21:17:20.013Z,10.80
2022-10-01T21:20:03.420Z,10.80
2022-10-01T21:22:42.869Z,10.90
2022-10-01T21:25:18.652Z,10.80
2022-10-01T21:28:07.281Z,10.90
2022-10-01T21:30:43.696Z,11.00
2022-10-01T21:33:16.801Z,11.00
2022-10-01T21:35:52.302Z,11.00
2022-10-01T21:38:31.992Z,10.90
2022-10-01T21:41:27.413Z,10.90
2022-10-01T21:44:18.890Z,10.90
2022-10-01T21:46:55.945Z,11.10
2022-10-01T21:49:35.260Z,11.00
2022-10-01T21:52:15.495Z,11.10
2022-10-01T21:55:06.848Z,11.10
2022-10-01T21:57:52.759Z,11.00
2022-10-01T22:00:47.074Z,11.00
2022-10-01T22:03:22.959Z,11.00
2022-10-01T22:05:57.802Z,11.00
2022-10-01T22:08:43.708Z,11.10
2022-10-01T22:11:15.864Z,11.00
2022-10-01T22:13:51.537Z,11.10
2022-10-01T22:16:21.993Z,11.10
2022-10-01T22:18:53.948Z,11.10
2022-10-01T22:21:26.717Z,11.10
2022-10-01T22:24:02.844Z,11.10
2022-10-01T22:26:35.137Z,11.10
2022-10-01T22:29:07.719Z,11.10
2022-10-01T22:31:37.585Z,11.10
2022-10-01T22:34:07.090Z,11.20
2022-10-01T22:36:42.525Z,11.20
2022-10-01T22:39:18.678Z,11.20
2022-10-01T22:41:52.048Z,11.20
2022-10-01T22:44:22.035Z,11.20
2022-10-01T22:46:56.810Z,11.20
2022-10-01T22:49:37.958Z,11.20
2022-10-01T22:52:18.185Z,11.30
2022-10-01T22:54:59.358Z,11.30
2022-10-01T22:57:48.134Z,11.30
2022-10-01T23:00:17.345Z,11.30
2022-10-01T23:02:55.685Z,11.30
2022-10-01T23:05:39.459Z,11.20
2022-10-01T23:08:17.430Z,11.20
2022-10-01T23:10:54.354Z,11.30
2022-10-01T23:13:30.955Z,11.20
2022-10-01T23:16:07.026Z,11.20
2022-10-01T23:18:46.051Z,11.20
2022-10-01T23:21:25.087Z,11.20
2022-10-01T23:24:03.834Z,11.20
2022-10-01T23:26:41.025Z,11.20
2022-10-01T23:29:43.346Z,11.20
2022-10-01T23:32:24.946Z,11.20
2022-10-01T23:35:00.303Z,11.30
2022-10-01T23:38:07.139Z,11.30
2022-10-01T23:40:40.229Z,11.20
2022-10-01T23:43:12.620Z,11.30
2022-10-01T23:45:46.026Z,11.30
2022-10-01T23:48:19.254Z,11.20
2022-10-01T23:50:54.195Z,11.20
2022-10-01T23:53:26.193Z,11.20
2022-10-01T23:56:22.013Z,11.20
2022-10-01T23:58:56.018Z,11.20
